エカテリンブルク の空港の天気 - METARとTAF

コルツォヴォ空港 ( USSS / SVX ) - ロシア エカテリンブルク
飛行場実況気象(Metar)
観測時間01/20 09:30 YEKT (01/20 04:30 UTC)
風向・風速静穏 0m/s
視程4900m
天気現象弱い雪 もや
全天の8割程度の雲 雲底高度 580m
気温-25℃
湿度83%
気圧1038hPa
METARUSSS 200430Z 00000MPS 4900 -SN BR BKN019 M25/M27 Q1038 R26R/490139 NOSIG RMK QFE757/1010
過去の天気等 Google飛行場航空写真 Wunderground天気予報

過去48時間のMETAR

飛行場予報(TAF)
発表時間: 1/20 06:55 YEKT (1/20 01:55 UTC)
予報対象時間: 20日8時 YEKT ~ 21日8時 YEKT
風向・風速東 3m/s
視程3,100m
天気現象弱い雪 もや
全天の8割程度の雲 雲底高度 210m
20日8時 YEKT ~ 20日11時 YEKT に一時的に
視程600m
天気現象
全天を覆う雲 鉛直視程 90m
20日11時 YEKT ~ 20日12時 YEKT に徐々に
視程5,000m
天気現象もや
全天の8割程度の雲 雲底高度 460m
20日12時 YEKT ~ 20日13時 YEKT に徐々に
視程10km以上
天気現象運行に影響にある天気現象が終了
TAF USSS 200155Z 2003/2103 09003MPS 3100 -SN BR BKN007
TEMPO 2003/2006 0600 FG VV003
BECMG 2006/2007 5000 BR BKN015
BECMG 2007/2008 9999 NSW